Main page
METAR-TAF:

METAR-TAF

Airports :

Victoria, Mahé, Seychelles

Seychelles International Airport

latitude: 04-40S, longitude: 055-31E, elevation: 3 m

Current weather observation

The report was made 38 minutes ago, at 16:00 UTC
Wind 3 kt from the South/Southwest
Temperature 27°C
Humidity 79%
Pressure 1011 hPa
Visibility 10 km or more
Few clouds at a height of 2000 ft

METAR: FSIA 241600Z 21003KT 9999 FEW020 27/23 Q1011 NOSIG

Time: 20:38 (16:38 UTC)

Forecast

The report was made 5 hours and 37 minutes ago, at 11:01 UTC
Forecast valid from 24 at 12 UTC to 25 at 12 UTC
Wind 5 kt from the Northwest
Visibility 10 km or more
Few clouds at a height of 1900 ft
Becoming
from 25 at 04 UTC to 25 at 06 UTC
Scattered clouds at a height of 1800 ft

TAF: FSIA 241101Z 2412/2512 32005KT 9999 FEW019 BECMG 2504/2506 SCT018

Weather observations and forecasts of more than 4000 airports (METAR and TAF reports).

The available stations are represented by yellow and red dots on the map.

Hover mouse over dot to see the name of the station.

Then click to see weather observations and forecasts.

To change the map : click on the green buttons with a black cross to zoom in, on the green button with a dash to zoom out, or on the green arrows for adjacent maps.


METAR-TAF: